Latest Weather Observations for Wiluna Airport

IDW60801

Issued at 2:23 pm WST Saturday 10 December 2022 (issued every 10 minutes, with the page automatically refreshed every 10 minutes)

About weather observations | Map of weather stations | Latest weather observations for WA | Other Formats
Station Details ID: 013044 Name: WILUNA AERO Lat: -26.63 Lon: 120.22 Height: 502.4 m
Data from the previous 72 hours. | See also: Recent months at Wiluna Airport
Date/Time
WST
Temp
°C
App
Temp
°C
Dew
Point
°C
Rel
Hum
%
Delta-T
°C
Wind Press
QNH
hPa
Press
MSL
hPa
Rain since
9am
mm
Dir  Spd
km/h
Gust
km/h
Spd
kts
Gust
kts
10/02:00pm 37.6 32.1 0.8 10 19.1 NW 19 30 10 16 1010.9 1007.1 0.0
10/01:30pm 37.3 30.1 0.6 10 19.0 WSW 28 43 15 23 1011.4 1007.7 0.0
10/01:00pm 35.6 29.3 1.8 12 17.6 WNW 24 35 13 19 1011.7 1008.0 0.0
10/12:30pm 35.4 29.9 1.7 12 17.5 W 20 37 11 20 1012.1 1008.4 0.0
10/12:18pm 36.0 28.8 0.9 11 18.1 WSW 28 44 15 24 1012.3 1008.5 0.0
10/12:00pm 35.4 31.2 1.7 12 17.5 WSW 13 32 7 17 1012.5 1008.7 0.0
10/11:30am 34.5 29.2 3.1 14 16.6 SW 20 37 11 20 1012.8 1009.0 0.0
10/11:00am 34.1 29.0 2.8 14 16.5 WSW 19 32 10 17 1013.2 1009.5 0.0
10/10:30am 32.4 29.1 2.5 15 15.5 S 9 19 5 10 1013.4 1009.7 0.0
10/10:00am 31.0 28.0 2.3 16 14.7 E 7 13 4 7 1013.7 1010.0 0.0
10/09:30am 30.2 26.5 2.5 17 14.2 ESE 11 20 6 11 1013.8 1010.1 0.0
10/09:00am 29.5 25.5 2.7 18 13.7 SE 13 19 7 10 1013.7 1010.0 0.0
10/08:30am 28.7 23.8 2.1 18 13.4 SE 17 24 9 13 1013.8 1010.1 0.0
10/08:00am 27.5 22.2 1.8 19 12.8 SSE 19 28 10 15 1014.0 1010.3 0.0
10/07:30am 27.1 22.0 2.9 21 12.2 S 19 26 10 14 1014.0 1010.3 0.0
10/07:00am 26.2 20.5 2.8 22 11.7 S 22 28 12 15 1013.8 1010.1 0.0
10/06:30am 25.6 20.0 3.6 24 11.1 S 22 28 12 15 1013.6 1009.9 0.0
10/06:00am 24.5 21.2 4.3 27 10.3 S 11 17 6 9 1013.2 1009.5 0.0
10/05:30am 23.3 19.6 4.3 29 9.6 SSW 13 15 7 8 1012.7 1008.9 0.0
10/05:00am 22.6 19.2 4.2 30 9.2 SSW 11 13 6 7 1012.7 1008.9 0.0
10/04:30am 23.9 21.3 4.3 28 9.9 SSW 7 7 4 4 1012.3 1008.5 0.0
10/04:00am 24.9 21.9 4.1 26 10.6 SSW 9 13 5 7 1011.9 1008.2 0.0
10/03:30am 25.4 21.7 4.5 26 10.7 SSW 13 22 7 12 1011.7 1008.0 0.0
10/03:00am 25.8 22.2 4.9 26 10.8 SSW 13 17 7 9 1011.6 1007.9 0.0
10/02:30am 26.5 22.3 5.5 26 11.1 SSW 17 22 9 12 1011.4 1007.7 0.0
10/02:00am 26.7 23.2 5.6 26 11.1 SW 13 20 7 11 1011.3 1007.6 0.0
10/01:30am 27.3 23.6 6.1 26 11.3 SSW 15 19 8 10 1011.1 1007.4 0.0
10/01:00am 27.9 23.4 6.1 25 11.7 SW 19 24 10 13 1011.0 1007.2 0.0
10/12:30am 27.8 24.8 6.0 25 11.7 SW 11 15 6 8 1010.8 1007.0 0.0
10/12:00am 28.5 25.5 6.0 24 12.1 SW 11 13 6 7 1010.5 1006.7 0.0
 
Date/Time
WST
Temp
°C
App
Temp
°C
Dew
Point
°C
Rel
Hum
%
Delta-T
°C
Wind Press
QNH
hPa
Press
MSL
hPa
Rain since
9am
mm
Dir  Spd
km/h
Gust
km/h
Spd
kts
Gust
kts
09/11:30pm 29.4 26.0 6.1 23 12.6 SW 13 19 7 10 1010.6 1006.8 0.0
09/11:00pm 30.1 26.0 6.1 22 13.0 SW 17 24 9 13 1010.6 1006.8 0.0
09/10:30pm 30.5 27.1 5.7 21 13.4 WSW 13 19 7 10 1010.4 1006.6 0.0
09/10:00pm 31.2 27.4 5.6 20 13.9 WSW 15 20 8 11 1010.4 1006.6 0.0
09/09:30pm 31.9 27.6 5.4 19 14.3 WSW 17 22 9 12 1010.1 1006.3 0.0
09/09:00pm 32.4 27.9 4.2 17 15.0 WSW 17 20 9 11 1009.8 1006.1 0.0
09/08:30pm 33.1 28.5 3.9 16 15.5 W 17 20 9 11 1009.6 1005.9 0.0
09/08:00pm 33.8 28.8 3.6 15 16.1 WSW 19 30 10 16 1009.2 1005.5 0.0
09/07:30pm 34.4 28.7 3.1 14 16.6 WSW 22 32 12 17 1008.8 1005.0 0.0
09/07:00pm 35.2 28.7 2.6 13 17.2 W 26 37 14 20 1008.4 1004.6 0.0
09/06:30pm 36.0 29.6 3.3 13 17.5 W 26 41 14 22 1008.0 1004.2 0.0
09/06:00pm 37.0 29.6 1.7 11 18.6 WNW 30 39 16 21 1007.4 1003.7 0.0
09/05:30pm 37.4 29.5 2.0 11 18.7 W 33 54 18 29 1007.0 1003.2 0.0
09/05:12pm 38.1 30.8 2.5 11 19.0 WNW 30 48 16 26 1006.8 1003.0 0.0
09/05:00pm 38.0 29.9 1.1 10 19.4 WNW 33 50 18 27 1006.9 1003.1 0.0
09/04:34pm 38.4 31.3 1.4 10 19.5 WNW 28 52 15 28 1006.7 1002.9 0.0
09/04:30pm 38.2 30.9 2.6 11 19.1 WNW 30 41 16 22 1006.8 1003.0 0.0
09/04:00pm 39.0 31.8 3.2 11 19.5 NW 30 50 16 27 1006.6 1002.8 0.0
09/03:52pm 38.9 31.7 3.1 11 19.4 WNW 30 50 16 27 1006.8 1003.0 0.0
09/03:30pm 38.3 31.0 2.7 11 19.1 WNW 30 44 16 24 1007.0 1003.2 0.0
09/03:02pm 38.8 30.8 1.7 10 19.7 WNW 33 54 18 29 1007.1 1003.3 0.0
09/03:00pm 38.5 30.5 1.5 10 19.6 WNW 33 54 18 29 1007.2 1003.4 0.0
09/02:30pm 38.6 30.1 2.9 11 19.3 NW 37 56 20 30 1007.5 1003.8 0.0
09/02:29pm 39.0 30.5 3.2 11 19.4 NW 37 56 20 30 1007.5 1003.8 0.0
09/02:21pm 39.4 30.4 2.2 10 19.9 WNW 39 57 21 31 1007.5 1003.8 0.0
09/02:16pm 38.9 30.4 3.1 11 19.4 W 37 57 20 31 1007.4 1003.7 0.0
09/02:00pm 39.1 31.6 3.3 11 19.5 NW 32 52 17 28 1007.7 1004.0 0.0
09/01:31pm 38.9 30.4 3.1 11 19.4 WNW 37 56 20 30 1008.1 1004.3 0.0
09/01:30pm 38.4 29.8 2.8 11 19.1 NW 37 52 20 28 1008.1 1004.3 0.0
09/01:21pm 38.2 31.5 3.8 12 18.8 WNW 28 50 15 27 1008.2 1004.4 0.0
09/01:00pm 37.2 31.0 4.2 13 18.1 NW 26 39 14 21 1008.7 1004.9 0.0
09/12:49pm 37.4 31.4 5.4 14 17.8 NW 26 50 14 27 1008.8 1005.0 0.0
09/12:30pm 35.9 29.9 5.2 15 16.9 NW 26 35 14 19 1009.1 1005.3 0.0
09/12:00pm 36.3 30.3 5.5 15 17.1 NW 26 39 14 21 1009.3 1005.6 0.0
09/11:30am 34.1 29.9 5.6 17 15.7 WNW 17 30 9 16 1009.8 1006.1 0.0
09/11:00am 34.0 30.3 6.3 18 15.4 W 15 24 8 13 1010.3 1006.5 0.0
09/10:30am 33.1 30.7 7.1 20 14.6 NW 9 20 5 11 1010.5 1006.7 0.0
09/10:00am 31.5 29.5 7.2 22 13.5 N 7 13 4 7 1010.7 1006.9 0.0
09/09:30am 30.6 29.1 8.3 25 12.6 SSE 6 15 3 8 1010.9 1007.1 0.0
09/09:00am 29.4 27.7 8.5 27 11.8 S 7 13 4 7 1011.1 1007.4 0.0
09/08:30am 28.0 25.6 8.8 30 10.8 SSE 11 15 6 8 1011.2 1007.5 0.0
09/08:00am 27.3 24.7 9.2 32 10.2 SSE 13 19 7 10 1011.2 1007.5 0.0
09/07:30am 26.3 23.7 9.2 34 9.6 SSW 13 19 7 10 1011.0 1007.2 0.0
09/07:00am 25.5 22.0 8.9 35 9.2 S 17 22 9 12 1010.9 1007.1 0.0
09/06:30am 24.8 21.7 8.7 36 8.9 SSW 15 24 8 13 1010.8 1007.0 0.0
09/06:00am 23.8 21.8 7.0 34 9.0 SW 7 11 4 6 1010.4 1006.6 0.0
09/05:30am 23.0 20.4 6.3 34 8.7 SW 9 17 5 9 1010.1 1006.3 0.0
09/05:00am 21.9 19.6 5.8 35 8.3 W 7 11 4 6 1009.7 1006.0 0.0
09/04:30am 21.6 18.6 4.2 32 8.7 W 9 11 5 6 1009.4 1005.7 0.0
09/04:00am 21.7 18.4 4.7 33 8.6 W 11 13 6 7 1009.2 1005.5 0.0
09/03:30am 21.6 18.8 5.1 34 8.4 W 9 11 5 6 1008.9 1005.1 0.0
09/03:00am 22.0 18.8 5.0 33 8.6 W 11 11 6 6 1008.8 1005.0 0.0
09/02:30am 22.2 19.4 5.2 33 8.7 W 9 11 5 6 1008.8 1005.0 0.0
09/02:00am 23.3 20.5 5.2 31 9.3 W 9 11 5 6 1008.7 1004.9 0.0
09/01:30am 23.3 20.6 5.7 32 9.1 W 9 11 5 6 1008.7 1004.9 0.0
09/01:00am 23.4 21.2 6.2 33 9.0 W 7 9 4 5 1008.8 1005.0 0.0
09/12:30am 24.4 22.1 5.7 30 9.8 W 7 7 4 4 1008.8 1005.0 0.0
09/12:00am 25.9 23.2 5.5 27 10.7 W 9 13 5 7 1008.9 1005.1 0.0
 
Date/Time
WST
Temp
°C
App
Temp
°C
Dew
Point
°C
Rel
Hum
%
Delta-T
°C
Wind Press
QNH
hPa
Press
MSL
hPa
Rain since
9am
mm
Dir  Spd
km/h
Gust
km/h
Spd
kts
Gust
kts
08/11:30pm 26.4 23.8 5.9 27 10.9 W 9 11 5 6 1009.2 1005.5 0.0
08/11:00pm 27.4 24.7 5.6 25 11.6 W 9 9 5 5 1009.4 1005.7 0.0
08/10:30pm 28.2 25.5 5.7 24 12.0 W 9 11 5 6 1009.5 1005.8 0.0
08/10:00pm 29.1 25.9 5.2 22 12.7 W 11 13 6 7 1009.5 1005.8 0.0
08/09:30pm 30.1 26.6 5.4 21 13.2 W 13 17 7 9 1009.5 1005.8 0.0
08/09:00pm 30.4 26.7 4.2 19 13.8 W 13 17 7 9 1009.1 1005.3 0.0
08/08:30pm 31.2 27.1 4.1 18 14.3 W 15 20 8 11 1008.9 1005.1 0.0
08/08:00pm 32.0 27.3 3.1 16 15.1 W 17 24 9 13 1008.7 1004.9 0.0
08/07:30pm 32.6 27.4 3.5 16 15.3 W 20 35 11 19 1008.5 1004.7 0.0
08/07:00pm 33.2 26.6 4.0 16 15.6 W 28 35 15 19 1008.1 1004.3 0.0
08/06:30pm 34.0 26.4 2.8 14 16.4 W 32 41 17 22 1007.5 1003.8 0.0
08/06:00pm 34.9 27.2 2.4 13 17.1 WNW 32 48 17 26 1007.2 1003.4 0.0
08/05:45pm 35.2 27.6 2.6 13 17.2 W 32 52 17 28 1007.0 1003.2 0.0
08/05:30pm 35.6 27.8 1.8 12 17.6 W 32 46 17 25 1006.8 1003.0 0.0
08/05:00pm 36.2 28.3 1.1 11 18.2 W 32 46 17 25 1006.5 1002.7 0.0
08/04:40pm 36.7 28.9 1.5 11 18.4 W 32 50 17 27 1006.5 1002.7 0.0
08/04:30pm 36.5 28.1 1.3 11 18.3 W 35 46 19 25 1006.4 1002.6 0.0
08/04:13pm 37.4 29.4 0.7 10 19.0 W 32 50 17 27 1006.3 1002.5 0.0
08/04:00pm 36.8 29.1 0.2 10 18.8 WNW 30 46 16 25 1006.4 1002.6 0.0
08/03:30pm 38.0 29.9 1.1 10 19.3 WNW 33 50 18 27 1006.3 1002.5 0.0
08/03:28pm 37.6 29.5 0.8 10 19.1 WNW 33 50 18 27 1006.4 1002.6 0.0
08/03:11pm 37.6 28.9 2.1 11 18.8 WNW 37 56 20 30 1006.4 1002.6 0.0
08/03:00pm 37.4 28.3 2.0 11 18.8 WNW 39 52 21 28 1006.4 1002.6 0.0
08/02:30pm 37.5 29.6 2.1 11 18.7 WNW 33 54 18 29 1006.7 1002.9 0.0
08/02:12pm 37.5 29.2 2.1 11 18.7 W 35 56 19 30 1006.7 1002.9 0.0
08/02:00pm 37.6 28.9 2.1 11 18.9 W 37 54 20 29 1006.8 1003.0 0.0
08/01:56pm 37.8 29.9 2.3 11 18.9 W 33 54 18 29 1006.9 1003.1 0.0
08/01:49pm 37.6 29.7 2.1 11 18.8 WNW 33 48 18 26 1007.0 1003.2 0.0
08/01:30pm 37.7 29.0 2.2 11 18.9 WNW 37 57 20 31 1007.1 1003.3 0.0
08/01:01pm 37.5 28.4 2.1 11 18.7 W 39 57 21 31 1007.4 1003.7 0.0
08/01:00pm 37.2 27.7 1.8 11 18.7 W 41 57 22 31 1007.5 1003.8 0.0
08/12:31pm 37.7 30.7 2.2 11 18.9 WNW 28 59 15 32 1007.7 1004.0 0.0
08/12:30pm 38.1 31.6 2.5 11 19.0 WNW 26 41 14 22 1007.8 1004.1 0.0
08/12:25pm 36.8 30.3 4.9 14 17.6 WNW 28 46 15 25 1007.8 1004.1 0.0
08/12:00pm 36.8 29.2 3.9 13 17.9 WNW 33 48 18 26 1008.1 1004.3 0.0
08/11:31am 36.4 29.9 4.6 14 17.4 WNW 28 46 15 25 1008.5 1004.7 0.0
08/11:30am 36.6 30.1 4.8 14 17.5 WNW 28 46 15 25 1008.5 1004.7 0.0
08/11:13am 36.7 30.0 3.8 13 17.8 NW 28 46 15 25 1008.6 1004.8 0.0
08/11:00am 36.3 28.8 3.5 13 17.7 WNW 32 46 17 25 1008.6 1004.8 0.0
08/10:30am 35.6 29.0 5.9 16 16.5 WNW 30 41 16 22 1008.9 1005.1 0.0
08/10:00am 34.8 30.1 7.8 19 15.4 WNW 22 33 12 18 1009.0 1005.2 0.0
08/09:30am 33.4 29.3 8.8 22 14.2 NW 20 30 11 16 1009.2 1005.5 0.0
08/09:00am 32.4 29.7 10.4 26 12.9 WNW 15 20 8 11 1009.4 1005.7 2.4
08/08:30am 31.1 27.9 9.9 27 12.3 WNW 17 22 9 12 1009.4 1005.7 2.4
08/08:00am 31.0 27.9 10.4 28 12.1 WNW 17 20 9 11 1009.1 1005.3 2.4
08/07:30am 30.1 27.1 10.6 30 11.4 W 17 24 9 13 1009.1 1005.3 2.4
08/07:00am 28.7 26.3 11.3 34 10.2 W 15 20 8 11 1009.0 1005.2 2.4
08/06:30am 27.0 25.8 14.1 45 7.9 W 13 19 7 10 1008.8 1005.0 2.4
08/06:00am 24.4 24.3 15.9 59 5.3 E 11 17 6 9 1008.5 1004.7 2.4
08/05:30am 22.8 24.4 17.0 70 3.6 E 4 9 2 5 1008.1 1004.3 2.4
08/05:00am 23.1 24.6 16.6 67 4.1 E 4 9 2 5 1007.7 1004.0 2.4
08/04:30am 23.4 26.0 17.4 69 3.8 CALM 0 6 0 3 1007.4 1003.7 2.4
08/04:00am 24.4 25.5 16.6 61 4.9 E 6 9 3 5 1007.1 1003.3 2.4
08/03:30am 25.0 25.4 16.4 59 5.4 E 9 9 5 5 1006.9 1003.1 2.4
08/03:00am 25.4 25.8 16.3 57 5.7 NE 9 11 5 6 1007.0 1003.2 2.4
08/02:30am 26.3 27.5 16.8 56 6.0 NE 6 7 3 4 1007.2 1003.4 2.4
08/02:00am 26.8 29.0 16.4 53 6.6 CALM 0 0 0 0 1007.2 1003.4 2.4
08/01:30am 27.8 28.3 15.5 47 7.7 NE 7 11 4 6 1007.2 1003.4 2.4
08/01:00am 28.3 27.4 14.9 44 8.3 NE 13 20 7 11 1007.3 1003.5 2.4
08/12:30am 28.5 27.2 14.7 43 8.5 NE 15 22 8 12 1007.5 1003.8 2.4
08/12:00am 28.9 27.0 14.3 40 9.0 NE 17 24 9 13 1007.4 1003.7 2.4
 
Date/Time
WST
Temp
°C
App
Temp
°C
Dew
Point
°C
Rel
Hum
%
Delta-T
°C
Wind Press
QNH
hPa
Press
MSL
hPa
Rain since
9am
mm
Dir  Spd
km/h
Gust
km/h
Spd
kts
Gust
kts
07/11:30pm 29.7 29.2 13.9 38 9.7 SSE 9 13 5 7 1007.7 1004.0 2.4
07/11:00pm 29.8 29.0 14.0 38 9.7 SSW 11 15 6 8 1007.2 1003.4 2.4
07/10:32pm 30.6 27.0 13.0 34 10.7 E 24 37 13 20 1007.2 1003.4 2.4
07/10:30pm 30.4 26.5 13.2 35 10.5 E 26 37 14 20 1007.1 1003.3 2.4
07/10:22pm 30.0 27.7 14.1 37 9.8 E 19 30 10 16 1007.2 1003.4 2.4
07/10:20pm 29.9 27.9 14.0 37 9.8 E 17 22 9 12 1007.4 1003.7 2.4
07/10:10pm 30.0 28.3 13.7 37 10.0 ESE 15 20 8 11 1007.4 1003.7 2.4
07/10:00pm 30.4 27.8 13.2 35 10.5 SE 19 22 10 12 1006.9 1003.1 2.4
07/09:30pm 30.2 27.1 13.5 36 10.2 SSW 22 30 12 16 1007.0 1003.2 2.4
07/09:00pm 32.5 30.5 11.6 28 12.5 NE 13 20 7 11 1005.9 1002.1 2.4
07/08:30pm 33.5 30.0 10.8 25 13.5 NNE 20 46 11 25 1005.9 1002.1 2.4
07/08:00pm 32.2 31.6 13.4 32 11.6 ENE 9 19 5 10 1005.6 1001.9 2.4
07/07:30pm 34.9 33.1 10.7 23 14.4 ENE 11 17 6 9 1005.5 1001.7 2.4
07/07:00pm 35.7 32.3 9.3 20 15.5 NNE 17 28 9 15 1005.2 1001.4 2.4
07/06:30pm 35.9 32.8 10.2 21 15.3 ENE 17 28 9 15 1005.1 1001.3 2.2
07/06:21pm 34.4 32.6 12.1 26 13.5 SE 13 19 7 10 1005.1 1001.3 2.2
07/06:00pm 33.8 34.2 14.8 32 12.0 ESE 6 9 3 5 1005.2 1001.4 2.2
07/05:53pm 33.5 33.6 15.5 34 11.4 ESE 9 15 5 8 1004.9 1001.1 2.2
07/05:41pm 33.2 33.5 17.8 40 10.1 SE 13 17 7 9 1004.9 1001.1 2.2
07/05:30pm 33.4 33.7 18.0 40 10.1 SSE 13 17 7 9 1004.7 1000.9 2.2
07/05:28pm 33.4 33.0 17.1 37 10.6 SE 15 17 8 9 1004.6 1000.8 2.2
07/05:00pm 34.9 33.8 12.0 25 14.0 E 9 13 5 7 1005.1 1001.3 2.2
07/04:46pm 34.8 33.1 12.5 26 13.6 SE 13 33 7 18 1005.2 1001.4 2.2
07/04:33pm 34.4 32.2 14.3 30 12.6 SE 19 30 10 16 1004.8 1001.0 2.2
07/04:30pm 34.0 32.0 15.5 33 11.8 SE 20 30 11 16 1004.9 1001.1 2.2
07/04:27pm 34.2 32.1 14.7 31 12.3 SE 19 26 10 14 1004.9 1001.1 2.2
07/04:09pm 32.5 31.4 17.2 40 9.9 N 19 41 10 22 1006.1 1002.3 1.6
07/04:00pm 37.9 33.7 5.8 14 18.1 NNE 17 32 9 17 1005.2 1001.4 0.0
07/03:50pm 38.3 33.8 6.1 14 18.2 ENE 19 32 10 17 1004.9 1001.1 0.0
07/03:30pm 39.1 33.9 5.7 13 18.8 ENE 22 32 12 17 1005.2 1001.4 0.0
07/03:00pm 39.3 35.1 5.8 13 19.0 NE 17 32 9 17 1005.9 1002.1 0.0
07/02:30pm 38.4 34.1 5.1 13 18.5 NE 17 30 9 16 1006.4 1002.6 0.0

Other formats

Comma delimited format used in spreadsheet applications
http://www.bom.gov.au/fwo/IDW60801/IDW60801.95439.axf

JavaScript Object Notation format (JSON) in row-major order
http://www.bom.gov.au/fwo/IDW60801/IDW60801.95439.json

Data quality

Most of these data are generated automatically and are frequently updated. Quality checks on data are not normally performed. It is possible for incorrect values to appear. Refer to information at About Latest Weather Observations and please check the disclaimer before using these data.